sensor_id;sensor_type;location;lat;lon;timestamp;P1;durP1;ratioP1;P2;durP2;ratioP2
16063;SDS011;8136;53.172;8.256;2023-06-19T00:00:38;4.60;;;4.20;;
16063;SDS011;8136;53.172;8.256;2023-06-19T00:03:07;6.77;;;4.30;;
16063;SDS011;8136;53.172;8.256;2023-06-19T00:05:34;4.83;;;4.20;;
16063;SDS011;8136;53.172;8.256;2023-06-19T00:08:01;6.23;;;4.73;;
16063;SDS011;8136;53.172;8.256;2023-06-19T00:10:28;4.50;;;4.07;;
16063;SDS011;8136;53.172;8.256;2023-06-19T00:12:55;6.17;;;4.73;;
16063;SDS011;8136;53.172;8.256;2023-06-19T00:15:22;4.40;;;3.97;;
16063;SDS011;8136;53.172;8.256;2023-06-19T00:17:49;6.53;;;4.70;;
16063;SDS011;8136;53.172;8.256;2023-06-19T00:20:17;7.53;;;4.63;;
16063;SDS011;8136;53.172;8.256;2023-06-19T00:22:44;5.40;;;4.63;;
16063;SDS011;8136;53.172;8.256;2023-06-19T00:25:16;5.27;;;4.57;;
16063;SDS011;8136;53.172;8.256;2023-06-19T00:27:43;4.87;;;4.37;;
16063;SDS011;8136;53.172;8.256;2023-06-19T00:30:10;6.40;;;4.60;;
16063;SDS011;8136;53.172;8.256;2023-06-19T00:32:37;5.03;;;4.50;;
16063;SDS011;8136;53.172;8.256;2023-06-19T00:35:11;6.37;;;4.37;;
16063;SDS011;8136;53.172;8.256;2023-06-19T00:37:40;5.23;;;4.60;;
16063;SDS011;8136;53.172;8.256;2023-06-19T00:40:11;5.30;;;4.27;;
16063;SDS011;8136;53.172;8.256;2023-06-19T00:42:45;5.47;;;4.80;;
16063;SDS011;8136;53.172;8.256;2023-06-19T00:45:12;5.20;;;4.70;;
16063;SDS011;8136;53.172;8.256;2023-06-19T00:47:39;5.87;;;4.80;;
16063;SDS011;8136;53.172;8.256;2023-06-19T00:50:06;6.13;;;4.30;;
16063;SDS011;8136;53.172;8.256;2023-06-19T00:52:33;7.27;;;5.00;;
16063;SDS011;8136;53.172;8.256;2023-06-19T00:55:02;6.33;;;4.40;;
16063;SDS011;8136;53.172;8.256;2023-06-19T00:57:30;5.43;;;4.17;;
16063;SDS011;8136;53.172;8.256;2023-06-19T00:59:57;5.30;;;4.40;;
16063;SDS011;8136;53.172;8.256;2023-06-19T01:02:24;6.53;;;4.73;;
16063;SDS011;8136;53.172;8.256;2023-06-19T01:04:53;6.90;;;4.40;;
16063;SDS011;8136;53.172;8.256;2023-06-19T01:07:22;6.10;;;4.43;;
16063;SDS011;8136;53.172;8.256;2023-06-19T01:09:55;4.67;;;4.20;;
16063;SDS011;8136;53.172;8.256;2023-06-19T01:12:30;4.70;;;4.20;;
16063;SDS011;8136;53.172;8.256;2023-06-19T01:15:00;7.93;;;4.43;;
16063;SDS011;8136;53.172;8.256;2023-06-19T01:17:30;5.30;;;4.10;;
16063;SDS011;8136;53.172;8.256;2023-06-19T01:19:58;4.30;;;3.70;;
16063;SDS011;8136;53.172;8.256;2023-06-19T01:22:27;5.37;;;3.93;;
16063;SDS011;8136;53.172;8.256;2023-06-19T01:24:54;4.43;;;3.90;;
16063;SDS011;8136;53.172;8.256;2023-06-19T01:27:22;4.13;;;3.70;;
16063;SDS011;8136;53.172;8.256;2023-06-19T01:29:50;4.60;;;3.97;;
16063;SDS011;8136;53.172;8.256;2023-06-19T01:32:19;5.47;;;4.37;;
16063;SDS011;8136;53.172;8.256;2023-06-19T01:34:49;5.20;;;4.40;;
16063;SDS011;8136;53.172;8.256;2023-06-19T01:37:18;7.20;;;4.80;;
16063;SDS011;8136;53.172;8.256;2023-06-19T01:39:47;3.70;;;3.40;;
16063;SDS011;8136;53.172;8.256;2023-06-19T01:42:15;4.20;;;3.63;;
16063;SDS011;8136;53.172;8.256;2023-06-19T01:44:42;4.80;;;4.10;;
16063;SDS011;8136;53.172;8.256;2023-06-19T01:47:09;4.10;;;3.43;;
16063;SDS011;8136;53.172;8.256;2023-06-19T01:49:37;7.60;;;3.90;;
16063;SDS011;8136;53.172;8.256;2023-06-19T01:52:04;6.83;;;4.17;;
16063;SDS011;8136;53.172;8.256;2023-06-19T01:54:31;4.10;;;3.70;;
16063;SDS011;8136;53.172;8.256;2023-06-19T01:57:00;3.97;;;3.00;;
16063;SDS011;8136;53.172;8.256;2023-06-19T01:59:27;5.93;;;3.70;;
16063;SDS011;8136;53.172;8.256;2023-06-19T02:01:54;4.77;;;3.70;;
16063;SDS011;8136;53.172;8.256;2023-06-19T02:04:20;3.77;;;3.33;;
16063;SDS011;8136;53.172;8.256;2023-06-19T02:06:47;3.90;;;3.37;;
16063;SDS011;8136;53.172;8.256;2023-06-19T02:09:14;5.10;;;3.60;;
16063;SDS011;8136;53.172;8.256;2023-06-19T02:11:41;3.90;;;3.43;;
16063;SDS011;8136;53.172;8.256;2023-06-19T02:14:09;8.93;;;3.90;;
16063;SDS011;8136;53.172;8.256;2023-06-19T02:16:37;4.27;;;3.03;;
16063;SDS011;8136;53.172;8.256;2023-06-19T02:19:05;6.40;;;3.90;;
16063;SDS011;8136;53.172;8.256;2023-06-19T02:21:32;4.27;;;3.73;;
16063;SDS011;8136;53.172;8.256;2023-06-19T02:23:58;5.77;;;3.33;;
16063;SDS011;8136;53.172;8.256;2023-06-19T02:26:25;4.07;;;3.57;;
16063;SDS011;8136;53.172;8.256;2023-06-19T02:28:54;4.33;;;3.50;;
16063;SDS011;8136;53.172;8.256;2023-06-19T02:31:22;5.07;;;3.73;;
16063;SDS011;8136;53.172;8.256;2023-06-19T02:33:49;3.43;;;2.97;;
16063;SDS011;8136;53.172;8.256;2023-06-19T02:36:16;4.33;;;3.17;;
16063;SDS011;8136;53.172;8.256;2023-06-19T02:38:44;4.83;;;3.63;;
16063;SDS011;8136;53.172;8.256;2023-06-19T02:41:25;4.80;;;3.50;;
16063;SDS011;8136;53.172;8.256;2023-06-19T02:43:51;4.43;;;3.70;;
16063;SDS011;8136;53.172;8.256;2023-06-19T02:46:18;4.77;;;3.70;;
16063;SDS011;8136;53.172;8.256;2023-06-19T02:48:46;3.97;;;3.37;;
16063;SDS011;8136;53.172;8.256;2023-06-19T02:51:13;3.47;;;2.90;;
16063;SDS011;8136;53.172;8.256;2023-06-19T02:53:40;4.83;;;3.90;;
16063;SDS011;8136;53.172;8.256;2023-06-19T02:56:06;4.57;;;3.80;;
16063;SDS011;8136;53.172;8.256;2023-06-19T02:58:33;5.03;;;4.20;;
16063;SDS011;8136;53.172;8.256;2023-06-19T03:01:02;3.93;;;3.50;;
16063;SDS011;8136;53.172;8.256;2023-06-19T03:03:31;5.03;;;3.70;;
16063;SDS011;8136;53.172;8.256;2023-06-19T03:06:03;6.00;;;3.77;;
16063;SDS011;8136;53.172;8.256;2023-06-19T03:08:30;5.33;;;3.63;;
16063;SDS011;8136;53.172;8.256;2023-06-19T03:10:57;4.57;;;3.57;;
16063;SDS011;8136;53.172;8.256;2023-06-19T03:13:24;4.27;;;3.80;;
16063;SDS011;8136;53.172;8.256;2023-06-19T03:15:51;4.43;;;3.43;;
16063;SDS011;8136;53.172;8.256;2023-06-19T03:18:18;5.50;;;3.93;;
16063;SDS011;8136;53.172;8.256;2023-06-19T03:20:44;5.23;;;3.47;;
16063;SDS011;8136;53.172;8.256;2023-06-19T03:23:13;5.00;;;3.60;;
16063;SDS011;8136;53.172;8.256;2023-06-19T03:25:39;3.80;;;3.20;;
16063;SDS011;8136;53.172;8.256;2023-06-19T03:28:07;4.70;;;3.50;;
16063;SDS011;8136;53.172;8.256;2023-06-19T03:30:34;4.00;;;3.30;;
16063;SDS011;8136;53.172;8.256;2023-06-19T03:33:01;4.07;;;3.43;;
16063;SDS011;8136;53.172;8.256;2023-06-19T03:35:28;5.27;;;3.07;;
16063;SDS011;8136;53.172;8.256;2023-06-19T03:37:54;7.67;;;3.30;;
16063;SDS011;8136;53.172;8.256;2023-06-19T03:40:22;5.27;;;3.83;;
16063;SDS011;8136;53.172;8.256;2023-06-19T03:42:49;4.37;;;3.37;;
16063;SDS011;8136;53.172;8.256;2023-06-19T03:45:16;3.80;;;3.27;;
16063;SDS011;8136;53.172;8.256;2023-06-19T03:47:43;4.10;;;3.33;;
16063;SDS011;8136;53.172;8.256;2023-06-19T03:50:09;4.47;;;3.87;;
16063;SDS011;8136;53.172;8.256;2023-06-19T03:52:36;4.23;;;3.40;;
16063;SDS011;8136;53.172;8.256;2023-06-19T03:55:03;4.70;;;3.20;;
16063;SDS011;8136;53.172;8.256;2023-06-19T03:57:32;4.13;;;3.47;;
16063;SDS011;8136;53.172;8.256;2023-06-19T03:59:59;5.80;;;3.70;;
16063;SDS011;8136;53.172;8.256;2023-06-19T04:02:25;4.37;;;3.03;;
16063;SDS011;8136;53.172;8.256;2023-06-19T04:04:52;3.57;;;3.23;;
16063;SDS011;8136;53.172;8.256;2023-06-19T04:07:19;4.73;;;3.63;;
16063;SDS011;8136;53.172;8.256;2023-06-19T04:09:46;5.70;;;3.57;;
16063;SDS011;8136;53.172;8.256;2023-06-19T04:12:13;3.87;;;3.47;;
16063;SDS011;8136;53.172;8.256;2023-06-19T04:14:41;6.83;;;4.23;;
16063;SDS011;8136;53.172;8.256;2023-06-19T04:17:08;5.77;;;3.60;;
16063;SDS011;8136;53.172;8.256;2023-06-19T04:19:35;4.77;;;3.37;;
16063;SDS011;8136;53.172;8.256;2023-06-19T04:22:04;4.10;;;3.33;;
16063;SDS011;8136;53.172;8.256;2023-06-19T04:24:37;3.90;;;3.40;;
16063;SDS011;8136;53.172;8.256;2023-06-19T04:27:06;3.00;;;2.70;;
16063;SDS011;8136;53.172;8.256;2023-06-19T04:29:34;3.90;;;3.33;;
16063;SDS011;8136;53.172;8.256;2023-06-19T04:32:05;5.00;;;3.50;;
16063;SDS011;8136;53.172;8.256;2023-06-19T04:34:36;4.50;;;3.47;;
16063;SDS011;8136;53.172;8.256;2023-06-19T04:37:06;4.23;;;3.53;;
16063;SDS011;8136;53.172;8.256;2023-06-19T04:39:33;4.07;;;3.47;;
16063;SDS011;8136;53.172;8.256;2023-06-19T04:42:00;4.17;;;2.80;;
16063;SDS011;8136;53.172;8.256;2023-06-19T04:44:27;4.10;;;3.40;;
16063;SDS011;8136;53.172;8.256;2023-06-19T04:46:55;3.87;;;3.17;;
16063;SDS011;8136;53.172;8.256;2023-06-19T04:49:27;4.17;;;3.63;;
16063;SDS011;8136;53.172;8.256;2023-06-19T04:51:56;5.07;;;3.50;;
16063;SDS011;8136;53.172;8.256;2023-06-19T04:54:24;5.17;;;3.77;;
16063;SDS011;8136;53.172;8.256;2023-06-19T04:56:51;4.97;;;3.70;;
16063;SDS011;8136;53.172;8.256;2023-06-19T04:59:19;4.80;;;3.77;;
16063;SDS011;8136;53.172;8.256;2023-06-19T05:01:45;4.60;;;3.40;;
16063;SDS011;8136;53.172;8.256;2023-06-19T05:04:12;4.67;;;3.47;;
16063;SDS011;8136;53.172;8.256;2023-06-19T05:06:41;3.90;;;3.50;;
16063;SDS011;8136;53.172;8.256;2023-06-19T05:09:08;3.83;;;3.50;;
16063;SDS011;8136;53.172;8.256;2023-06-19T05:11:36;4.27;;;3.40;;
16063;SDS011;8136;53.172;8.256;2023-06-19T05:14:02;4.27;;;3.33;;
16063;SDS011;8136;53.172;8.256;2023-06-19T05:16:30;3.83;;;3.37;;
16063;SDS011;8136;53.172;8.256;2023-06-19T05:18:57;5.43;;;3.70;;
16063;SDS011;8136;53.172;8.256;2023-06-19T05:21:33;4.63;;;3.67;;
16063;SDS011;8136;53.172;8.256;2023-06-19T05:24:02;6.50;;;3.70;;
16063;SDS011;8136;53.172;8.256;2023-06-19T05:26:29;4.67;;;3.63;;
16063;SDS011;8136;53.172;8.256;2023-06-19T05:28:56;4.07;;;3.67;;
16063;SDS011;8136;53.172;8.256;2023-06-19T05:31:25;4.17;;;3.57;;
16063;SDS011;8136;53.172;8.256;2023-06-19T05:33:51;4.93;;;3.37;;
16063;SDS011;8136;53.172;8.256;2023-06-19T05:36:18;7.23;;;3.47;;
16063;SDS011;8136;53.172;8.256;2023-06-19T05:38:45;4.67;;;3.37;;
16063;SDS011;8136;53.172;8.256;2023-06-19T05:41:15;4.63;;;3.87;;
16063;SDS011;8136;53.172;8.256;2023-06-19T05:43:42;4.47;;;3.53;;
16063;SDS011;8136;53.172;8.256;2023-06-19T05:46:09;3.60;;;3.17;;
16063;SDS011;8136;53.172;8.256;2023-06-19T05:48:36;6.37;;;3.77;;
16063;SDS011;8136;53.172;8.256;2023-06-19T05:51:03;4.17;;;3.70;;
16063;SDS011;8136;53.172;8.256;2023-06-19T05:53:30;5.13;;;3.80;;
16063;SDS011;8136;53.172;8.256;2023-06-19T05:55:57;4.17;;;3.40;;
16063;SDS011;8136;53.172;8.256;2023-06-19T05:58:25;4.37;;;3.50;;
16063;SDS011;8136;53.172;8.256;2023-06-19T06:00:52;4.27;;;3.57;;
16063;SDS011;8136;53.172;8.256;2023-06-19T06:03:23;4.57;;;3.53;;
16063;SDS011;8136;53.172;8.256;2023-06-19T06:05:50;4.90;;;3.30;;
16063;SDS011;8136;53.172;8.256;2023-06-19T06:08:17;4.10;;;3.03;;
16063;SDS011;8136;53.172;8.256;2023-06-19T06:10:44;6.37;;;4.20;;
16063;SDS011;8136;53.172;8.256;2023-06-19T06:13:11;4.70;;;3.70;;
16063;SDS011;8136;53.172;8.256;2023-06-19T06:15:39;4.40;;;3.50;;
16063;SDS011;8136;53.172;8.256;2023-06-19T06:18:05;6.27;;;3.50;;
16063;SDS011;8136;53.172;8.256;2023-06-19T06:20:32;3.60;;;3.30;;
16063;SDS011;8136;53.172;8.256;2023-06-19T06:22:59;5.23;;;3.90;;
16063;SDS011;8136;53.172;8.256;2023-06-19T06:25:26;4.40;;;3.60;;
16063;SDS011;8136;53.172;8.256;2023-06-19T06:27:52;7.90;;;3.80;;
16063;SDS011;8136;53.172;8.256;2023-06-19T06:30:19;5.00;;;3.47;;
16063;SDS011;8136;53.172;8.256;2023-06-19T06:32:47;4.50;;;3.57;;
16063;SDS011;8136;53.172;8.256;2023-06-19T06:35:14;7.23;;;4.27;;
16063;SDS011;8136;53.172;8.256;2023-06-19T06:37:41;5.43;;;3.77;;
16063;SDS011;8136;53.172;8.256;2023-06-19T06:40:09;4.77;;;3.60;;
16063;SDS011;8136;53.172;8.256;2023-06-19T06:42:36;9.73;;;4.10;;
16063;SDS011;8136;53.172;8.256;2023-06-19T06:45:03;6.23;;;4.17;;
16063;SDS011;8136;53.172;8.256;2023-06-19T06:47:31;5.53;;;3.90;;
16063;SDS011;8136;53.172;8.256;2023-06-19T06:50:00;5.50;;;4.10;;
16063;SDS011;8136;53.172;8.256;2023-06-19T06:52:27;4.70;;;3.80;;
16063;SDS011;8136;53.172;8.256;2023-06-19T06:54:55;6.30;;;4.00;;
16063;SDS011;8136;53.172;8.256;2023-06-19T06:57:22;5.27;;;3.87;;
16063;SDS011;8136;53.172;8.256;2023-06-19T06:59:49;5.93;;;3.93;;
16063;SDS011;8136;53.172;8.256;2023-06-19T07:02:16;6.07;;;3.90;;
16063;SDS011;8136;53.172;8.256;2023-06-19T07:04:43;6.53;;;4.50;;
16063;SDS011;8136;53.172;8.256;2023-06-19T07:07:11;7.90;;;4.33;;
16063;SDS011;8136;53.172;8.256;2023-06-19T07:09:37;5.23;;;3.90;;
16063;SDS011;8136;53.172;8.256;2023-06-19T07:12:04;5.73;;;3.87;;
16063;SDS011;8136;53.172;8.256;2023-06-19T07:14:32;6.37;;;3.57;;
16063;SDS011;8136;53.172;8.256;2023-06-19T07:16:59;4.30;;;3.60;;
16063;SDS011;8136;53.172;8.256;2023-06-19T07:19:26;5.80;;;3.90;;
16063;SDS011;8136;53.172;8.256;2023-06-19T07:21:55;4.40;;;3.40;;
16063;SDS011;8136;53.172;8.256;2023-06-19T07:24:23;4.80;;;3.43;;
16063;SDS011;8136;53.172;8.256;2023-06-19T07:26:50;4.30;;;3.43;;
16063;SDS011;8136;53.172;8.256;2023-06-19T07:29:18;4.37;;;3.43;;
16063;SDS011;8136;53.172;8.256;2023-06-19T07:31:46;6.13;;;3.97;;
16063;SDS011;8136;53.172;8.256;2023-06-19T07:34:13;6.00;;;4.10;;
16063;SDS011;8136;53.172;8.256;2023-06-19T07:36:40;4.30;;;3.57;;
16063;SDS011;8136;53.172;8.256;2023-06-19T07:39:07;5.17;;;3.90;;
16063;SDS011;8136;53.172;8.256;2023-06-19T07:41:36;6.33;;;3.87;;
16063;SDS011;8136;53.172;8.256;2023-06-19T07:44:03;5.53;;;3.37;;
16063;SDS011;8136;53.172;8.256;2023-06-19T07:46:30;4.93;;;3.90;;
16063;SDS011;8136;53.172;8.256;2023-06-19T07:48:57;4.40;;;3.83;;
16063;SDS011;8136;53.172;8.256;2023-06-19T07:51:23;7.53;;;4.03;;
16063;SDS011;8136;53.172;8.256;2023-06-19T07:53:50;5.37;;;3.93;;
16063;SDS011;8136;53.172;8.256;2023-06-19T07:56:17;5.43;;;4.07;;
16063;SDS011;8136;53.172;8.256;2023-06-19T07:58:45;4.87;;;3.13;;
16063;SDS011;8136;53.172;8.256;2023-06-19T08:01:12;5.23;;;3.80;;
16063;SDS011;8136;53.172;8.256;2023-06-19T08:03:38;5.13;;;3.80;;
16063;SDS011;8136;53.172;8.256;2023-06-19T08:06:05;4.07;;;3.23;;
16063;SDS011;8136;53.172;8.256;2023-06-19T08:08:32;3.37;;;2.90;;
16063;SDS011;8136;53.172;8.256;2023-06-19T08:10:59;4.77;;;3.77;;
16063;SDS011;8136;53.172;8.256;2023-06-19T08:13:25;3.70;;;3.27;;
16063;SDS011;8136;53.172;8.256;2023-06-19T08:15:53;3.63;;;2.63;;
16063;SDS011;8136;53.172;8.256;2023-06-19T08:18:20;4.00;;;2.80;;
16063;SDS011;8136;53.172;8.256;2023-06-19T08:20:47;5.80;;;2.90;;
16063;SDS011;8136;53.172;8.256;2023-06-19T08:23:14;3.37;;;2.67;;
16063;SDS011;8136;53.172;8.256;2023-06-19T08:25:41;3.40;;;2.33;;
16063;SDS011;8136;53.172;8.256;2023-06-19T08:28:07;3.63;;;2.83;;
16063;SDS011;8136;53.172;8.256;2023-06-19T08:30:34;3.77;;;2.50;;
16063;SDS011;8136;53.172;8.256;2023-06-19T08:33:02;3.23;;;2.63;;
16063;SDS011;8136;53.172;8.256;2023-06-19T08:35:29;3.40;;;2.53;;
16063;SDS011;8136;53.172;8.256;2023-06-19T08:37:56;8.30;;;2.90;;
16063;SDS011;8136;53.172;8.256;2023-06-19T08:40:22;3.73;;;2.47;;
16063;SDS011;8136;53.172;8.256;2023-06-19T08:42:50;2.93;;;2.10;;
16063;SDS011;8136;53.172;8.256;2023-06-19T08:45:18;3.60;;;2.20;;
16063;SDS011;8136;53.172;8.256;2023-06-19T08:47:46;3.50;;;2.30;;
16063;SDS011;8136;53.172;8.256;2023-06-19T08:50:15;3.50;;;2.33;;
16063;SDS011;8136;53.172;8.256;2023-06-19T08:52:42;2.87;;;2.30;;
16063;SDS011;8136;53.172;8.256;2023-06-19T08:55:08;2.97;;;2.20;;
16063;SDS011;8136;53.172;8.256;2023-06-19T08:57:36;2.97;;;2.07;;
16063;SDS011;8136;53.172;8.256;2023-06-19T09:00:04;3.13;;;2.07;;
16063;SDS011;8136;53.172;8.256;2023-06-19T09:02:36;5.13;;;2.67;;
16063;SDS011;8136;53.172;8.256;2023-06-19T09:05:13;2.40;;;2.13;;
16063;SDS011;8136;53.172;8.256;2023-06-19T09:07:42;2.97;;;2.50;;
16063;SDS011;8136;53.172;8.256;2023-06-19T09:10:14;3.67;;;2.00;;
16063;SDS011;8136;53.172;8.256;2023-06-19T09:12:42;3.37;;;2.30;;
16063;SDS011;8136;53.172;8.256;2023-06-19T09:15:13;2.60;;;2.10;;
16063;SDS011;8136;53.172;8.256;2023-06-19T09:17:40;3.93;;;2.00;;
16063;SDS011;8136;53.172;8.256;2023-06-19T09:20:07;2.20;;;1.83;;
16063;SDS011;8136;53.172;8.256;2023-06-19T09:22:38;3.53;;;2.10;;
16063;SDS011;8136;53.172;8.256;2023-06-19T09:25:06;2.27;;;1.87;;
16063;SDS011;8136;53.172;8.256;2023-06-19T09:27:35;5.13;;;1.90;;
16063;SDS011;8136;53.172;8.256;2023-06-19T09:30:02;1.73;;;1.50;;
16063;SDS011;8136;53.172;8.256;2023-06-19T09:32:31;2.00;;;1.77;;
16063;SDS011;8136;53.172;8.256;2023-06-19T09:34:58;1.67;;;1.40;;
16063;SDS011;8136;53.172;8.256;2023-06-19T09:37:25;2.03;;;1.70;;
16063;SDS011;8136;53.172;8.256;2023-06-19T09:39:55;1.90;;;1.50;;
16063;SDS011;8136;53.172;8.256;2023-06-19T09:42:24;2.97;;;1.83;;
16063;SDS011;8136;53.172;8.256;2023-06-19T09:44:55;2.87;;;1.97;;
16063;SDS011;8136;53.172;8.256;2023-06-19T09:47:27;2.03;;;1.50;;
16063;SDS011;8136;53.172;8.256;2023-06-19T09:49:57;2.00;;;1.70;;
16063;SDS011;8136;53.172;8.256;2023-06-19T09:52:25;2.50;;;1.87;;
16063;SDS011;8136;53.172;8.256;2023-06-19T09:54:53;2.20;;;1.40;;
16063;SDS011;8136;53.172;8.256;2023-06-19T09:57:22;4.00;;;1.70;;
16063;SDS011;8136;53.172;8.256;2023-06-19T09:59:50;2.13;;;1.83;;
16063;SDS011;8136;53.172;8.256;2023-06-19T10:02:21;3.67;;;1.77;;
16063;SDS011;8136;53.172;8.256;2023-06-19T10:04:50;2.17;;;1.80;;
16063;SDS011;8136;53.172;8.256;2023-06-19T10:07:19;2.90;;;1.73;;
16063;SDS011;8136;53.172;8.256;2023-06-19T10:10:01;2.30;;;1.60;;
16063;SDS011;8136;53.172;8.256;2023-06-19T10:12:37;2.27;;;2.07;;
16063;SDS011;8136;53.172;8.256;2023-06-19T10:15:09;3.27;;;1.73;;
16063;SDS011;8136;53.172;8.256;2023-06-19T10:17:47;2.33;;;1.80;;
16063;SDS011;8136;53.172;8.256;2023-06-19T10:20:21;3.87;;;1.93;;
16063;SDS011;8136;53.172;8.256;2023-06-19T10:22:51;2.47;;;1.90;;
16063;SDS011;8136;53.172;8.256;2023-06-19T10:25:23;3.07;;;2.30;;
16063;SDS011;8136;53.172;8.256;2023-06-19T10:27:53;2.93;;;2.10;;
16063;SDS011;8136;53.172;8.256;2023-06-19T10:30:20;3.63;;;2.03;;
16063;SDS011;8136;53.172;8.256;2023-06-19T10:32:47;2.70;;;2.20;;
16063;SDS011;8136;53.172;8.256;2023-06-19T10:35:14;3.57;;;2.00;;
16063;SDS011;8136;53.172;8.256;2023-06-19T10:37:43;2.53;;;1.87;;
16063;SDS011;8136;53.172;8.256;2023-06-19T10:40:10;3.27;;;2.10;;
16063;SDS011;8136;53.172;8.256;2023-06-19T10:42:39;2.23;;;1.90;;
16063;SDS011;8136;53.172;8.256;2023-06-19T10:45:07;4.90;;;2.17;;
16063;SDS011;8136;53.172;8.256;2023-06-19T10:47:35;5.10;;;2.23;;
16063;SDS011;8136;53.172;8.256;2023-06-19T10:53:11;3.20;;;2.10;;
16063;SDS011;8136;53.172;8.256;2023-06-19T10:55:38;2.13;;;1.70;;
16063;SDS011;8136;53.172;8.256;2023-06-19T10:58:06;2.10;;;1.80;;
16063;SDS011;8136;53.172;8.256;2023-06-19T11:00:33;4.07;;;1.90;;
16063;SDS011;8136;53.172;8.256;2023-06-19T11:03:00;3.53;;;1.70;;
16063;SDS011;8136;53.172;8.256;2023-06-19T11:05:27;2.20;;;1.90;;
16063;SDS011;8136;53.172;8.256;2023-06-19T11:07:54;3.00;;;2.10;;
16063;SDS011;8136;53.172;8.256;2023-06-19T11:10:22;2.37;;;2.00;;
16063;SDS011;8136;53.172;8.256;2023-06-19T11:12:52;3.30;;;2.53;;
16063;SDS011;8136;53.172;8.256;2023-06-19T11:15:28;2.83;;;2.13;;
16063;SDS011;8136;53.172;8.256;2023-06-19T11:17:55;3.03;;;2.00;;
16063;SDS011;8136;53.172;8.256;2023-06-19T11:20:22;3.17;;;2.57;;
16063;SDS011;8136;53.172;8.256;2023-06-19T11:22:54;2.40;;;2.20;;
16063;SDS011;8136;53.172;8.256;2023-06-19T11:25:22;3.87;;;2.40;;
16063;SDS011;8136;53.172;8.256;2023-06-19T11:27:51;6.83;;;2.40;;
16063;SDS011;8136;53.172;8.256;2023-06-19T11:30:29;3.20;;;2.90;;
16063;SDS011;8136;53.172;8.256;2023-06-19T11:32:58;3.80;;;2.57;;
16063;SDS011;8136;53.172;8.256;2023-06-19T11:35:31;5.93;;;2.60;;
16063;SDS011;8136;53.172;8.256;2023-06-19T11:38:06;6.20;;;2.60;;
16063;SDS011;8136;53.172;8.256;2023-06-19T11:40:44;3.57;;;2.63;;
16063;SDS011;8136;53.172;8.256;2023-06-19T11:43:22;4.43;;;2.90;;
16063;SDS011;8136;53.172;8.256;2023-06-19T11:45:59;3.43;;;2.70;;
16063;SDS011;8136;53.172;8.256;2023-06-19T11:48:31;2.90;;;2.40;;
16063;SDS011;8136;53.172;8.256;2023-06-19T11:50:58;3.63;;;2.90;;
16063;SDS011;8136;53.172;8.256;2023-06-19T11:53:28;3.67;;;2.47;;
16063;SDS011;8136;53.172;8.256;2023-06-19T11:55:58;3.30;;;3.00;;
16063;SDS011;8136;53.172;8.256;2023-06-19T11:58:28;3.53;;;2.70;;
16063;SDS011;8136;53.172;8.256;2023-06-19T12:01:05;3.83;;;2.83;;
16063;SDS011;8136;53.172;8.256;2023-06-19T12:03:31;3.77;;;2.70;;
16063;SDS011;8136;53.172;8.256;2023-06-19T12:05:58;3.90;;;2.70;;
16063;SDS011;8136;53.172;8.256;2023-06-19T12:08:25;4.03;;;2.57;;
16063;SDS011;8136;53.172;8.256;2023-06-19T12:10:52;3.30;;;3.00;;
16063;SDS011;8136;53.172;8.256;2023-06-19T12:13:19;3.77;;;2.80;;
16063;SDS011;8136;53.172;8.256;2023-06-19T12:15:45;3.20;;;2.63;;
16063;SDS011;8136;53.172;8.256;2023-06-19T12:18:13;5.07;;;3.20;;
16063;SDS011;8136;53.172;8.256;2023-06-19T12:20:40;3.77;;;2.93;;
16063;SDS011;8136;53.172;8.256;2023-06-19T12:23:07;3.87;;;2.63;;
16063;SDS011;8136;53.172;8.256;2023-06-19T12:25:36;4.13;;;3.73;;
16063;SDS011;8136;53.172;8.256;2023-06-19T12:28:03;4.30;;;3.60;;
16063;SDS011;8136;53.172;8.256;2023-06-19T12:30:36;4.67;;;3.60;;
16063;SDS011;8136;53.172;8.256;2023-06-19T12:33:09;6.00;;;3.30;;
16063;SDS011;8136;53.172;8.256;2023-06-19T12:35:39;3.90;;;3.17;;
16063;SDS011;8136;53.172;8.256;2023-06-19T12:38:06;4.07;;;2.90;;
16063;SDS011;8136;53.172;8.256;2023-06-19T12:40:34;4.10;;;3.13;;
16063;SDS011;8136;53.172;8.256;2023-06-19T12:43:02;3.33;;;2.90;;
16063;SDS011;8136;53.172;8.256;2023-06-19T12:45:29;3.97;;;3.27;;
16063;SDS011;8136;53.172;8.256;2023-06-19T12:47:58;2.90;;;2.60;;
16063;SDS011;8136;53.172;8.256;2023-06-19T12:50:25;3.80;;;2.93;;
16063;SDS011;8136;53.172;8.256;2023-06-19T12:52:53;3.57;;;2.83;;
16063;SDS011;8136;53.172;8.256;2023-06-19T12:55:20;3.53;;;2.90;;
16063;SDS011;8136;53.172;8.256;2023-06-19T12:57:47;3.37;;;3.07;;
16063;SDS011;8136;53.172;8.256;2023-06-19T13:00:14;3.07;;;2.73;;
16063;SDS011;8136;53.172;8.256;2023-06-19T13:02:41;4.27;;;3.50;;
16063;SDS011;8136;53.172;8.256;2023-06-19T13:05:11;4.03;;;2.87;;
16063;SDS011;8136;53.172;8.256;2023-06-19T13:07:38;4.20;;;3.20;;
16063;SDS011;8136;53.172;8.256;2023-06-19T13:10:07;3.27;;;2.53;;
16063;SDS011;8136;53.172;8.256;2023-06-19T13:12:34;3.30;;;2.93;;
16063;SDS011;8136;53.172;8.256;2023-06-19T13:17:58;4.53;;;3.40;;
16063;SDS011;8136;53.172;8.256;2023-06-19T13:20:25;3.63;;;3.00;;
16063;SDS011;8136;53.172;8.256;2023-06-19T13:23:02;3.77;;;3.00;;
16063;SDS011;8136;53.172;8.256;2023-06-19T13:25:30;4.07;;;2.97;;
16063;SDS011;8136;53.172;8.256;2023-06-19T13:28:03;4.03;;;3.10;;
16063;SDS011;8136;53.172;8.256;2023-06-19T13:30:42;5.67;;;3.80;;
16063;SDS011;8136;53.172;8.256;2023-06-19T13:33:09;5.37;;;3.30;;
16063;SDS011;8136;53.172;8.256;2023-06-19T13:35:37;4.87;;;3.93;;
16063;SDS011;8136;53.172;8.256;2023-06-19T13:38:14;4.20;;;3.60;;
16063;SDS011;8136;53.172;8.256;2023-06-19T13:40:45;5.57;;;3.73;;
16063;SDS011;8136;53.172;8.256;2023-06-19T13:43:24;4.17;;;3.77;;
16063;SDS011;8136;53.172;8.256;2023-06-19T13:45:57;4.37;;;3.93;;
16063;SDS011;8136;53.172;8.256;2023-06-19T13:48:28;4.60;;;4.07;;
16063;SDS011;8136;53.172;8.256;2023-06-19T13:50:58;3.60;;;3.23;;
16063;SDS011;8136;53.172;8.256;2023-06-19T13:53:34;3.77;;;3.37;;
16063;SDS011;8136;53.172;8.256;2023-06-19T13:56:08;6.10;;;3.63;;
16063;SDS011;8136;53.172;8.256;2023-06-19T13:58:36;4.17;;;3.10;;
16063;SDS011;8136;53.172;8.256;2023-06-19T14:01:06;4.20;;;3.50;;
16063;SDS011;8136;53.172;8.256;2023-06-19T14:03:37;3.90;;;2.70;;
16063;SDS011;8136;53.172;8.256;2023-06-19T14:06:04;4.63;;;2.87;;
16063;SDS011;8136;53.172;8.256;2023-06-19T14:08:34;3.07;;;2.60;;
16063;SDS011;8136;53.172;8.256;2023-06-19T14:11:09;4.07;;;3.03;;
16063;SDS011;8136;53.172;8.256;2023-06-19T14:13:42;3.93;;;2.77;;
16063;SDS011;8136;53.172;8.256;2023-06-19T14:16:11;5.07;;;2.57;;
16063;SDS011;8136;53.172;8.256;2023-06-19T14:18:40;3.33;;;2.50;;
16063;SDS011;8136;53.172;8.256;2023-06-19T14:21:11;4.30;;;2.60;;
16063;SDS011;8136;53.172;8.256;2023-06-19T14:23:48;4.03;;;2.87;;
16063;SDS011;8136;53.172;8.256;2023-06-19T14:26:16;4.40;;;2.70;;
16063;SDS011;8136;53.172;8.256;2023-06-19T14:28:46;4.33;;;2.90;;
16063;SDS011;8136;53.172;8.256;2023-06-19T14:31:13;5.13;;;3.07;;
16063;SDS011;8136;53.172;8.256;2023-06-19T14:33:51;3.63;;;2.60;;
16063;SDS011;8136;53.172;8.256;2023-06-19T14:39:12;2.53;;;2.27;;
16063;SDS011;8136;53.172;8.256;2023-06-19T14:41:40;4.23;;;2.60;;
16063;SDS011;8136;53.172;8.256;2023-06-19T14:46:52;3.63;;;2.87;;
16063;SDS011;8136;53.172;8.256;2023-06-19T14:49:20;3.30;;;2.57;;
16063;SDS011;8136;53.172;8.256;2023-06-19T14:51:47;3.27;;;2.60;;
16063;SDS011;8136;53.172;8.256;2023-06-19T14:54:14;3.00;;;2.70;;
16063;SDS011;8136;53.172;8.256;2023-06-19T14:56:58;3.93;;;3.07;;
16063;SDS011;8136;53.172;8.256;2023-06-19T14:59:25;4.97;;;2.90;;
16063;SDS011;8136;53.172;8.256;2023-06-19T15:01:52;3.50;;;2.67;;
16063;SDS011;8136;53.172;8.256;2023-06-19T15:04:19;3.63;;;2.70;;
16063;SDS011;8136;53.172;8.256;2023-06-19T15:06:46;3.53;;;2.90;;
16063;SDS011;8136;53.172;8.256;2023-06-19T15:09:16;5.23;;;2.80;;
16063;SDS011;8136;53.172;8.256;2023-06-19T15:11:51;3.23;;;2.50;;
16063;SDS011;8136;53.172;8.256;2023-06-19T15:14:22;2.57;;;2.37;;
16063;SDS011;8136;53.172;8.256;2023-06-19T15:16:49;7.13;;;3.37;;
16063;SDS011;8136;53.172;8.256;2023-06-19T15:19:17;3.47;;;2.57;;